Emerald Coast — WDC9127 — position and weather

sailwx.info

Track history (hours):
 
Tides and Currents Weather Stations Pressure Air Temp Water Temp Dewpoint Dewpoint Depression Visibility Wind Speed Wind Dir Waves Ship Positions

Emerald Coast

Owner: Dann Marine Towing, LC, Chesapeake City, MD. More information available from US FCC via Universal Licensing System and Coast Guard Vessel Documentation Center.

Last reported at 2015-Jun-30 09:33 UTC. Time now 2015-Jun-30 10:00 UTC.
Position N 40°40' W 074°03'.

; draft 3 m.

Type: Towing. MMSI: 367097920.

Date/timePositionNaut miles runAvg speedWind from/ knotsBaromVisibWave heightAir tempDewpointWater temp
2015-Jun-30 09:33N 40°40' W 074°03'4 4.2
2015-Jun-30 08:33N 40°39' W 074°09'1 0.5
2015-Jun-30 07:33N 40°40' W 074°09'0 0.0
2015-Jun-30 06:33N 40°40' W 074°09'0 0.0
2015-Jun-30 05:33N 40°40' W 074°09'0 0.0
2015-Jun-30 04:33N 40°40' W 074°09'0 0.0
2015-Jun-30 03:33N 40°40' W 074°09'4 3.9
2015-Jun-30 02:33N 40°40' W 074°04'4 3.5
2015-Jun-30 01:33N 40°43' W 074°01'5 5.4
2015-Jun-30 00:33N 40°48' W 073°59'4 4.0
2015-Jun-29 23:33N 40°51' W 073°57'2 0.1
2015-Jun-28 19:33N 40°53' W 073°55'4 4.4
2015-Jun-28 18:33N 40°49' W 073°58'3 3.4
2015-Jun-28 17:33N 40°46' W 074°00'3 3.0
2015-Jun-28 16:33N 40°44' W 074°01'3 3.1
2015-Jun-28 15:33N 40°41' W 074°02'5 5.1
2015-Jun-28 14:33N 40°39' W 074°09'3 2.9
2015-Jun-28 13:32N 40°38' W 074°12'4 1.2
2015-Jun-28 10:13N 40°39' W 074°07'1 0.1
2015-Jun-28 04:33N 40°39' W 074°06'1 0.4
2015-Jun-28 02:33N 40°39' W 074°05'1 0.5
2015-Jun-27 23:30N 40°39' W 074°07'0 0.2
2015-Jun-27 22:31N 40°39' W 074°07'0 0.5
2015-Jun-27 21:33N 40°39' W 074°07'3 2.7
2015-Jun-27 20:22N 40°41' W 074°10'0 0.0
2015-Jun-27 19:33N 40°41' W 074°10'0 0.0
2015-Jun-27 18:33N 40°41' W 074°10'0 0.0
2015-Jun-27 17:33N 40°41' W 074°10'0 0.1
2015-Jun-27 16:31N 40°41' W 074°09'3 3.5
2015-Jun-27 15:33N 40°39' W 074°07'4 3.5
2015-Jun-27 14:33N 40°40' W 074°03'5 4.5
2015-Jun-27 13:33N 40°40' W 074°09'0 0.3
2015-Jun-27 12:33N 40°40' W 074°09'0 0.0
2015-Jun-27 11:33N 40°40' W 074°09'0 0.0
2015-Jun-27 10:33N 40°40' W 074°09'0 0.0
2015-Jun-27 09:33N 40°40' W 074°09'0 0.0
2015-Jun-27 08:33N 40°40' W 074°09'0 0.0
2015-Jun-27 07:33N 40°40' W 074°09'0 0.0
2015-Jun-27 06:33N 40°40' W 074°09'0 0.0
2015-Jun-27 05:33N 40°40' W 074°09'0 0.3
2015-Jun-27 04:33N 40°40' W 074°08'2 2.4
2015-Jun-27 03:33N 40°39' W 074°06'1 1.2
2015-Jun-27 02:33N 40°39' W 074°07'0 0.0
2015-Jun-27 01:33N 40°39' W 074°07'0 0.0
2015-Jun-27 00:33N 40°39' W 074°07'0 0.0
2015-Jun-26 23:33N 40°39' W 074°07'0 0.0
2015-Jun-26 22:33N 40°39' W 074°07'2 2.0
2015-Jun-26 21:33N 40°39' W 074°05'1 1.0
2015-Jun-26 20:33N 40°39' W 074°06'1 0.9
2015-Jun-26 19:33N 40°39' W 074°07'0 0.0
2015-Jun-26 18:33N 40°39' W 074°07'0 0.0
2015-Jun-26 17:33N 40°39' W 074°07'0 0.0
2015-Jun-26 16:31N 40°39' W 074°07'0 0.0
2015-Jun-26 15:26N 40°39' W 074°07'0 0.0
2015-Jun-26 14:33N 40°39' W 074°07'0 0.0
2015-Jun-26 13:33N 40°39' W 074°07'1 1.0
2015-Jun-26 12:33N 40°39' W 074°06'2 2.2
2015-Jun-26 11:33N 40°40' W 074°08'1 1.2
2015-Jun-26 10:33N 40°41' W 074°09'0 0.0
2015-Jun-26 09:33N 40°41' W 074°09'0 0.0
2015-Jun-26 08:33N 40°41' W 074°09'0 0.0
2015-Jun-26 07:33N 40°41' W 074°09'0 0.0
2015-Jun-26 06:33N 40°41' W 074°09'0 0.0
2015-Jun-26 05:33N 40°41' W 074°09'0 0.0
2015-Jun-26 04:33N 40°41' W 074°09'0 0.0
2015-Jun-26 03:33N 40°41' W 074°09'0 0.0
2015-Jun-26 02:33N 40°41' W 074°09'0 0.0
2015-Jun-26 01:33N 40°41' W 074°09'0 0.0
2015-Jun-26 00:33N 40°41' W 074°09'0 0.0
2015-Jun-25 23:33N 40°41' W 074°09'0 0.1
2015-Jun-25 22:33N 40°41' W 074°09'0 0.3
2015-Jun-25 21:33N 40°41' W 074°09'0 0.0
2015-Jun-25 20:33N 40°41' W 074°09'0 0.0
2015-Jun-25 19:33N 40°41' W 074°09'0 0.0
2015-Jun-25 18:33N 40°41' W 074°09'0 0.0
2015-Jun-25 17:33N 40°41' W 074°09'1 1.4
2015-Jun-25 16:33N 40°40' W 074°09'2 1.6
2015-Jun-25 15:33N 40°41' W 074°09'0 0.0
2015-Jun-25 14:33N 40°41' W 074°09'0 0.0
2015-Jun-25 13:33N 40°41' W 074°09'0 0.4
2015-Jun-25 12:33N 40°41' W 074°09'4 3.5
2015-Jun-25 11:33N 40°39' W 074°05'4 3.7
2015-Jun-25 10:33N 40°40' W 074°01'0 0.0
2015-Jun-25 09:33N 40°40' W 074°01'0 0.0
2015-Jun-25 08:33N 40°40' W 074°01'0 0.0
2015-Jun-25 07:33N 40°40' W 074°01'3 3.0
2015-Jun-25 06:33N 40°39' W 074°04'2 2.3
2015-Jun-25 05:33N 40°39' W 074°07'0 0.0
2015-Jun-25 04:29N 40°39' W 074°07'0 0.0
2015-Jun-25 03:29N 40°39' W 074°07'0 0.0
2015-Jun-25 02:33N 40°39' W 074°07'0 0.0
2015-Jun-25 01:33N 40°39' W 074°07'0 0.0
2015-Jun-25 00:33N 40°39' W 074°07'0 0.0
2015-Jun-24 23:33N 40°39' W 074°07'0 0.0
2015-Jun-24 22:33N 40°39' W 074°07'0 0.0
2015-Jun-24 21:32N 40°39' W 074°07'0 0.0
2015-Jun-24 20:32N 40°39' W 074°07'3 2.6
2015-Jun-24 19:33N 40°40' W 074°05'1 1.0
2015-Jun-24 18:33N 40°39' W 074°05'2 1.6
2015-Jun-24 17:32N 40°39' W 074°07'0 0.0
2015-Jun-24 16:33N 40°39' W 074°07'0 0.0
2015-Jun-24 15:33N 40°39' W 074°07'0 0.0
2015-Jun-24 14:33N 40°39' W 074°07'0 0.0
2015-Jun-24 13:32N 40°39' W 074°07'0 0.0
2015-Jun-24 12:33N 40°39' W 074°07'0 0.0
2015-Jun-24 11:33N 40°39' W 074°07'0 0.0
2015-Jun-24 10:33N 40°39' W 074°07'0 0.0
2015-Jun-24 09:33N 40°39' W 074°07'0 0.0
2015-Jun-24 08:32N 40°39' W 074°07'0 0.0
2015-Jun-24 07:32N 40°39' W 074°07'0 0.0
2015-Jun-24 06:23N 40°39' W 074°07'0 0.0
2015-Jun-24 05:33N 40°39' W 074°07'0 0.0
2015-Jun-24 04:33N 40°39' W 074°07'0 0.0
2015-Jun-24 03:29N 40°39' W 074°07'0 0.0
2015-Jun-24 02:33N 40°39' W 074°07'0 0.0
2015-Jun-24 01:33N 40°39' W 074°07'0 0.0
2015-Jun-24 00:33N 40°39' W 074°07'0 0.0
2015-Jun-23 23:33N 40°39' W 074°07'0 0.0
2015-Jun-23 22:33N 40°39' W 074°07'0 0.0
2015-Jun-23 21:33N 40°39' W 074°07'4 4.4
2015-Jun-23 20:33N 40°41' W 074°02'1 1.2
2015-Jun-23 19:33N 40°41' W 074°01'0 0.0
2015-Jun-23 19:06N 40°41' W 074°01'7 0.3
2015-Jun-22 19:33N 40°39' W 074°09'1 1.4
2015-Jun-22 18:33N 40°39' W 074°07'0 0.0
2015-Jun-22 17:30N 40°39' W 074°07'0 0.0
2015-Jun-22 16:33N 40°39' W 074°07'2 2.4
2015-Jun-22 15:33N 40°41' W 074°09'3 2.7
2015-Jun-22 14:33N 40°39' W 074°06'4 4.3
2015-Jun-22 13:33N 40°40' W 074°00'0 0.3
2015-Jun-22 12:33N 40°40' W 074°00'4 3.5
2015-Jun-22 11:33N 40°43' W 073°58'6 6.0
2015-Jun-22 10:33N 40°48' W 073°54'4 3.7
2015-Jun-22 09:33N 40°48' W 073°49'8 0.3
2015-Jun-21 04:33N 40°52' W 073°40'1 1.1
2015-Jun-21 03:26N 40°52' W 073°41'4 4.0
2015-Jun-21 02:33N 40°51' W 073°46'3 3.0
2015-Jun-21 01:32N 40°48' W 073°47'4 4.3
2015-Jun-21 00:33N 40°48' W 073°53'3 3.1
2015-Jun-20 23:33N 40°46' W 073°56'3 2.9
2015-Jun-20 22:33N 40°44' W 073°58'2 1.8
2015-Jun-20 21:33N 40°42' W 073°59'3 2.7
2015-Jun-20 20:33N 40°41' W 074°02'5 4.8
2015-Jun-20 19:33N 40°39' W 074°08'4 3.6
2015-Jun-20 18:33N 40°38' W 074°12'6 6.5
2015-Jun-20 17:33N 40°40' W 074°04'1 1.2
2015-Jun-20 16:33N 40°40' W 074°03'4 3.8
2015-Jun-20 15:33N 40°39' W 074°07'0 0.0
2015-Jun-20 14:33N 40°39' W 074°07'0 0.0
2015-Jun-20 13:33N 40°39' W 074°07'0 0.0
2015-Jun-20 12:33N 40°39' W 074°07'0 0.0
2015-Jun-20 11:33N 40°39' W 074°07'0 0.0
2015-Jun-20 10:33N 40°39' W 074°07'0 0.0
2015-Jun-20 09:33N 40°39' W 074°07'  
Track history (hours):
 
Tides and Currents Weather Stations Pressure Air Temp Water Temp Dewpoint Dewpoint Depression Visibility Wind Speed Wind Dir Waves Ship Positions

Emerald Coast

Owner: Dann Marine Towing, LC, Chesapeake City, MD. More information available from US FCC via Universal Licensing System and Coast Guard Vessel Documentation Center.

Last reported at 2015-Jun-30 09:33 UTC. Time now 2015-Jun-30 10:00 UTC.
Position N 40°40' W 074°03'.

; draft 3 m.

Type: Towing. MMSI: 367097920.

Date/timePositionNaut miles runAvg speedWind from/ knotsBaromVisibWave heightAir tempDewpointWater temp
2015-Jun-30 09:33N 40°40' W 074°03'4 4.2
2015-Jun-30 08:33N 40°39' W 074°09'1 0.5
2015-Jun-30 07:33N 40°40' W 074°09'0 0.0
2015-Jun-30 06:33N 40°40' W 074°09'0 0.0
2015-Jun-30 05:33N 40°40' W 074°09'0 0.0
2015-Jun-30 04:33N 40°40' W 074°09'0 0.0
2015-Jun-30 03:33N 40°40' W 074°09'4 3.9
2015-Jun-30 02:33N 40°40' W 074°04'4 3.5
2015-Jun-30 01:33N 40°43' W 074°01'5 5.4
2015-Jun-30 00:33N 40°48' W 073°59'4 4.0
2015-Jun-29 23:33N 40°51' W 073°57'2 0.1
2015-Jun-28 19:33N 40°53' W 073°55'4 4.4
2015-Jun-28 18:33N 40°49' W 073°58'3 3.4
2015-Jun-28 17:33N 40°46' W 074°00'3 3.0
2015-Jun-28 16:33N 40°44' W 074°01'3 3.1
2015-Jun-28 15:33N 40°41' W 074°02'5 5.1
2015-Jun-28 14:33N 40°39' W 074°09'3 2.9
2015-Jun-28 13:32N 40°38' W 074°12'4 1.2
2015-Jun-28 10:13N 40°39' W 074°07'1 0.1
2015-Jun-28 04:33N 40°39' W 074°06'1 0.4
2015-Jun-28 02:33N 40°39' W 074°05'1 0.5
2015-Jun-27 23:30N 40°39' W 074°07'0 0.2
2015-Jun-27 22:31N 40°39' W 074°07'0 0.5
2015-Jun-27 21:33N 40°39' W 074°07'3 2.7
2015-Jun-27 20:22N 40°41' W 074°10'0 0.0
2015-Jun-27 19:33N 40°41' W 074°10'0 0.0
2015-Jun-27 18:33N 40°41' W 074°10'0 0.0
2015-Jun-27 17:33N 40°41' W 074°10'0 0.1
2015-Jun-27 16:31N 40°41' W 074°09'3 3.5
2015-Jun-27 15:33N 40°39' W 074°07'4 3.5
2015-Jun-27 14:33N 40°40' W 074°03'5 4.5
2015-Jun-27 13:33N 40°40' W 074°09'0 0.3
2015-Jun-27 12:33N 40°40' W 074°09'0 0.0
2015-Jun-27 11:33N 40°40' W 074°09'0 0.0
2015-Jun-27 10:33N 40°40' W 074°09'0 0.0
2015-Jun-27 09:33N 40°40' W 074°09'0 0.0
2015-Jun-27 08:33N 40°40' W 074°09'0 0.0
2015-Jun-27 07:33N 40°40' W 074°09'0 0.0
2015-Jun-27 06:33N 40°40' W 074°09'0 0.0
2015-Jun-27 05:33N 40°40' W 074°09'0 0.3
2015-Jun-27 04:33N 40°40' W 074°08'2 2.4
2015-Jun-27 03:33N 40°39' W 074°06'1 1.2
2015-Jun-27 02:33N 40°39' W 074°07'0 0.0
2015-Jun-27 01:33N 40°39' W 074°07'0 0.0
2015-Jun-27 00:33N 40°39' W 074°07'0 0.0
2015-Jun-26 23:33N 40°39' W 074°07'0 0.0
2015-Jun-26 22:33N 40°39' W 074°07'2 2.0
2015-Jun-26 21:33N 40°39' W 074°05'1 1.0
2015-Jun-26 20:33N 40°39' W 074°06'1 0.9
2015-Jun-26 19:33N 40°39' W 074°07'0 0.0
2015-Jun-26 18:33N 40°39' W 074°07'0 0.0
2015-Jun-26 17:33N 40°39' W 074°07'0 0.0
2015-Jun-26 16:31N 40°39' W 074°07'0 0.0
2015-Jun-26 15:26N 40°39' W 074°07'0 0.0
2015-Jun-26 14:33N 40°39' W 074°07'0 0.0
2015-Jun-26 13:33N 40°39' W 074°07'1 1.0
2015-Jun-26 12:33N 40°39' W 074°06'2 2.2
2015-Jun-26 11:33N 40°40' W 074°08'1 1.2
2015-Jun-26 10:33N 40°41' W 074°09'0 0.0
2015-Jun-26 09:33N 40°41' W 074°09'0 0.0
2015-Jun-26 08:33N 40°41' W 074°09'0 0.0
2015-Jun-26 07:33N 40°41' W 074°09'0 0.0
2015-Jun-26 06:33N 40°41' W 074°09'0 0.0
2015-Jun-26 05:33N 40°41' W 074°09'0 0.0
2015-Jun-26 04:33N 40°41' W 074°09'0 0.0
2015-Jun-26 03:33N 40°41' W 074°09'0 0.0
2015-Jun-26 02:33N 40°41' W 074°09'0 0.0
2015-Jun-26 01:33N 40°41' W 074°09'0 0.0
2015-Jun-26 00:33N 40°41' W 074°09'0 0.0
2015-Jun-25 23:33N 40°41' W 074°09'0 0.1
2015-Jun-25 22:33N 40°41' W 074°09'0 0.3
2015-Jun-25 21:33N 40°41' W 074°09'0 0.0
2015-Jun-25 20:33N 40°41' W 074°09'0 0.0
2015-Jun-25 19:33N 40°41' W 074°09'0 0.0
2015-Jun-25 18:33N 40°41' W 074°09'0 0.0
2015-Jun-25 17:33N 40°41' W 074°09'1 1.4
2015-Jun-25 16:33N 40°40' W 074°09'2 1.6
2015-Jun-25 15:33N 40°41' W 074°09'0 0.0
2015-Jun-25 14:33N 40°41' W 074°09'0 0.0
2015-Jun-25 13:33N 40°41' W 074°09'0 0.4
2015-Jun-25 12:33N 40°41' W 074°09'4 3.5
2015-Jun-25 11:33N 40°39' W 074°05'4 3.7
2015-Jun-25 10:33N 40°40' W 074°01'0 0.0
2015-Jun-25 09:33N 40°40' W 074°01'0 0.0
2015-Jun-25 08:33N 40°40' W 074°01'0 0.0
2015-Jun-25 07:33N 40°40' W 074°01'3 3.0
2015-Jun-25 06:33N 40°39' W 074°04'2 2.3
2015-Jun-25 05:33N 40°39' W 074°07'0 0.0
2015-Jun-25 04:29N 40°39' W 074°07'0 0.0
2015-Jun-25 03:29N 40°39' W 074°07'0 0.0
2015-Jun-25 02:33N 40°39' W 074°07'0 0.0
2015-Jun-25 01:33N 40°39' W 074°07'0 0.0
2015-Jun-25 00:33N 40°39' W 074°07'0 0.0
2015-Jun-24 23:33N 40°39' W 074°07'0 0.0
2015-Jun-24 22:33N 40°39' W 074°07'0 0.0
2015-Jun-24 21:32N 40°39' W 074°07'0 0.0
2015-Jun-24 20:32N 40°39' W 074°07'3 2.6
2015-Jun-24 19:33N 40°40' W 074°05'1 1.0
2015-Jun-24 18:33N 40°39' W 074°05'2 1.6
2015-Jun-24 17:32N 40°39' W 074°07'0 0.0
2015-Jun-24 16:33N 40°39' W 074°07'0 0.0
2015-Jun-24 15:33N 40°39' W 074°07'0 0.0
2015-Jun-24 14:33N 40°39' W 074°07'0 0.0
2015-Jun-24 13:32N 40°39' W 074°07'0 0.0
2015-Jun-24 12:33N 40°39' W 074°07'0 0.0
2015-Jun-24 11:33N 40°39' W 074°07'0 0.0
2015-Jun-24 10:33N 40°39' W 074°07'0 0.0
2015-Jun-24 09:33N 40°39' W 074°07'0 0.0
2015-Jun-24 08:32N 40°39' W 074°07'0 0.0
2015-Jun-24 07:32N 40°39' W 074°07'0 0.0
2015-Jun-24 06:23N 40°39' W 074°07'0 0.0
2015-Jun-24 05:33N 40°39' W 074°07'0 0.0
2015-Jun-24 04:33N 40°39' W 074°07'0 0.0
2015-Jun-24 03:29N 40°39' W 074°07'0 0.0
2015-Jun-24 02:33N 40°39' W 074°07'0 0.0
2015-Jun-24 01:33N 40°39' W 074°07'0 0.0
2015-Jun-24 00:33N 40°39' W 074°07'0 0.0
2015-Jun-23 23:33N 40°39' W 074°07'0 0.0
2015-Jun-23 22:33N 40°39' W 074°07'0 0.0
2015-Jun-23 21:33N 40°39' W 074°07'4 4.4
2015-Jun-23 20:33N 40°41' W 074°02'1 1.2
2015-Jun-23 19:33N 40°41' W 074°01'0 0.0
2015-Jun-23 19:06N 40°41' W 074°01'7 0.3
2015-Jun-22 19:33N 40°39' W 074°09'1 1.4
2015-Jun-22 18:33N 40°39' W 074°07'0 0.0
2015-Jun-22 17:30N 40°39' W 074°07'0 0.0
2015-Jun-22 16:33N 40°39' W 074°07'2 2.4
2015-Jun-22 15:33N 40°41' W 074°09'3 2.7
2015-Jun-22 14:33N 40°39' W 074°06'4 4.3
2015-Jun-22 13:33N 40°40' W 074°00'0 0.3
2015-Jun-22 12:33N 40°40' W 074°00'4 3.5
2015-Jun-22 11:33N 40°43' W 073°58'6 6.0
2015-Jun-22 10:33N 40°48' W 073°54'4 3.7
2015-Jun-22 09:33N 40°48' W 073°49'8 0.3
2015-Jun-21 04:33N 40°52' W 073°40'1 1.1
2015-Jun-21 03:26N 40°52' W 073°41'4 4.0
2015-Jun-21 02:33N 40°51' W 073°46'3 3.0
2015-Jun-21 01:32N 40°48' W 073°47'4 4.3
2015-Jun-21 00:33N 40°48' W 073°53'3 3.1
2015-Jun-20 23:33N 40°46' W 073°56'3 2.9
2015-Jun-20 22:33N 40°44' W 073°58'2 1.8
2015-Jun-20 21:33N 40°42' W 073°59'3 2.7
2015-Jun-20 20:33N 40°41' W 074°02'5 4.8
2015-Jun-20 19:33N 40°39' W 074°08'4 3.6
2015-Jun-20 18:33N 40°38' W 074°12'6 6.5
2015-Jun-20 17:33N 40°40' W 074°04'1 1.2
2015-Jun-20 16:33N 40°40' W 074°03'4 3.8
2015-Jun-20 15:33N 40°39' W 074°07'0 0.0
2015-Jun-20 14:33N 40°39' W 074°07'0 0.0
2015-Jun-20 13:33N 40°39' W 074°07'0 0.0
2015-Jun-20 12:33N 40°39' W 074°07'0 0.0
2015-Jun-20 11:33N 40°39' W 074°07'0 0.0
2015-Jun-20 10:33N 40°39' W 074°07'0 0.0
2015-Jun-20 09:33N 40°39' W 074°07'  

Dump ship's entire track history